Social login voor leden:
METAR EBOS 170920Z 10009KT 5000 BR NSC 04/02 Q1028 NOSIG
TAF EBOS 170500Z 1706/1812 09010KT 2500 BR BKN003 TEMPO 1706/1709 0300 FG BKN001 BECMG 1708/1710 7000 NSW SCT007

Sonaca 200, onze nieuwe parel van Belgische makelij!

Begin december nemen wij ons eerste gloednieuw toestel van het type Sonaca 200 in gebruik! Dit is een volgende stap in het strategisch plan om onze vloot te vernieuwen. Dit toestel is van Belgische makelij en oogt niet alleen zeer mooi, maar is ook zeer performant. Het toestel zal enerzijds gebruikt worden als lestoestel, maar wordt anderzijds ook ter beschikking gesteld van onze leden. Wil je ook vliegen op de Sonaca 200? Aarzel niet om ons te contacteren om lid te worden!

 

Opleiding Piloot
Meevliegen
Visit Us
Agenda
Opleiding Piloot
Doopvluchten
Visit Us
Volgende activiteit
Noordzee Vliegclub - Nieuwpoortsesteenweg 947 8400 Oostende - Tel 059 30 04 79 - Dit e-mailadres wordt beveiligd tegen spambots. JavaScript dient ingeschakeld te zijn om het te bekijken.

 - Copyright 2017 ©